createdAt,value
2016-12-28T00:00:06.228Z,0
2016-12-28T00:01:05.928Z,0
2016-12-28T00:02:06.568Z,0
2016-12-28T00:03:06.286Z,0
2016-12-28T00:04:05.706Z,0
2016-12-28T00:05:06.347Z,0
2016-12-28T00:06:06.088Z,0
2016-12-28T00:07:06.109Z,0
2016-12-28T00:08:06.738Z,0
2016-12-28T00:09:06.464Z,0
2016-12-28T00:10:06.492Z,0
2016-12-28T00:11:06.205Z,0
2016-12-28T00:12:06.244Z,0
2016-12-28T00:13:06.569Z,0
2016-12-28T00:14:05.997Z,0
2016-12-28T00:15:06.020Z,0
2016-12-28T00:16:06.039Z,0
2016-12-28T00:17:06.684Z,0
2016-12-28T00:18:06.405Z,0
2016-12-28T00:19:06.742Z,0
2016-12-28T00:20:06.440Z,0
2016-12-28T00:21:06.483Z,0
2016-12-28T00:22:06.811Z,0
2016-12-28T00:23:06.239Z,0
2016-12-28T00:24:06.294Z,0
2016-12-28T00:25:06.902Z,0
2016-12-28T00:26:06.308Z,0
2016-12-28T00:27:06.347Z,0
2016-12-28T00:28:06.680Z,0
2016-12-28T00:29:07.009Z,0
2016-12-28T00:30:06.448Z,0
2016-12-28T00:31:06.454Z,0
2016-12-28T00:32:06.788Z,0
2016-12-28T00:33:06.820Z,0
2016-12-28T00:34:07.156Z,0
2016-12-28T00:35:06.569Z,0
2016-12-28T00:36:06.906Z,0
2016-12-28T00:37:07.231Z,0
2016-12-28T00:38:07.252Z,0
2016-12-28T00:39:06.669Z,0
2016-12-28T00:40:07.006Z,0
2016-12-28T00:41:07.332Z,0
2016-12-28T00:42:06.758Z,0
2016-12-28T00:43:07.092Z,0
2016-12-28T00:44:07.420Z,0
2016-12-28T00:45:07.440Z,0
2016-12-28T00:46:06.870Z,0
2016-12-28T00:47:07.498Z,0
2016-12-28T00:48:07.215Z,0
2016-12-28T00:49:07.240Z,0
2016-12-28T00:50:06.972Z,0
2016-12-28T00:51:07.316Z,0
2016-12-28T00:52:07.025Z,0
2016-12-28T00:53:07.354Z,0
2016-12-28T00:54:07.079Z,0
2016-12-28T00:55:08.020Z,0
2016-12-28T00:56:07.760Z,0
2016-12-28T00:57:07.470Z,0
2016-12-28T00:58:08.098Z,0
2016-12-28T00:59:07.216Z,0
2016-12-28T01:00:07.847Z,0
2016-12-28T01:01:07.268Z,0
2016-12-28T01:02:07.313Z,0
2016-12-28T01:03:07.638Z,0
2016-12-28T01:04:07.951Z,0
2016-12-28T01:05:07.679Z,0
2016-12-28T01:06:08.324Z,0
2016-12-28T01:07:08.336Z,0
2016-12-28T01:08:08.057Z,0
2016-12-28T01:09:08.110Z,0
2016-12-28T01:10:07.823Z,0
2016-12-28T01:11:07.891Z,0
2016-12-28T01:12:07.904Z,0
2016-12-28T01:13:08.209Z,0
2016-12-28T01:14:08.230Z,0
2016-12-28T01:15:08.259Z,0
2016-12-28T01:16:07.996Z,0
2016-12-28T01:17:08.004Z,0
2016-12-28T01:18:08.333Z,0
2016-12-28T01:19:08.061Z,0
2016-12-28T01:20:08.086Z,0
2016-12-28T01:21:08.419Z,0
2016-12-28T01:22:07.843Z,0
2016-12-28T01:23:07.896Z,0
2016-12-28T01:24:08.509Z,0
2016-12-28T01:25:08.530Z,0
2016-12-28T01:26:07.935Z,0
2016-12-28T01:27:08.273Z,0
2016-12-28T01:28:08.304Z,0
2016-12-28T01:29:08.329Z,0
2016-12-28T01:30:08.369Z,0
2016-12-28T01:31:08.690Z,0
2016-12-28T01:32:08.418Z,0
2016-12-28T01:33:09.071Z,0
2016-12-28T01:34:08.477Z,0
2016-12-28T01:35:08.785Z,0
2016-12-28T01:36:08.518Z,0
2016-12-28T01:37:08.241Z,0
2016-12-28T01:38:08.563Z,0
2016-12-28T01:39:08.583Z,0
2016-12-28T01:40:08.628Z,0
2016-12-28T01:41:08.657Z,0
2016-12-28T01:42:09.295Z,0
2016-12-28T01:43:09.014Z,0
2016-12-28T01:44:08.428Z,0
2016-12-28T01:45:08.755Z,0
2016-12-28T01:46:09.088Z,0
2016-12-28T01:47:08.809Z,0
2016-12-28T01:48:09.154Z,0
2016-12-28T01:49:08.867Z,0
2016-12-28T01:50:08.592Z,0
2016-12-28T01:51:08.627Z,0
2016-12-28T01:52:09.558Z,0
2016-12-28T01:53:09.007Z,0
2016-12-28T01:54:09.610Z,0
2016-12-28T01:55:09.027Z,0
2016-12-28T01:56:09.368Z,0
2016-12-28T01:57:09.080Z,0
2016-12-28T01:58:09.415Z,0
2016-12-28T01:59:09.138Z,0
2016-12-28T02:00:09.175Z,0
2016-12-28T02:01:09.504Z,0
2016-12-28T02:02:09.824Z,0
2016-12-28T02:03:09.244Z,0
2016-12-28T02:04:09.317Z,0
2016-12-28T02:05:09.002Z,0
2016-12-28T02:06:09.327Z,0
2016-12-28T02:07:09.043Z,0
2016-12-28T02:08:09.389Z,0
2016-12-28T02:09:09.406Z,0
2016-12-28T02:10:09.441Z,0
2016-12-28T02:11:10.098Z,0
2016-12-28T02:12:09.795Z,0
2016-12-28T02:13:09.522Z,0
2016-12-28T02:14:09.535Z,0
2016-12-28T02:15:09.880Z,0
2016-12-28T02:16:09.301Z,0
2016-12-28T02:17:09.326Z,0
2016-12-28T02:18:09.350Z,0
2016-12-28T02:19:10.295Z,0
2016-12-28T02:20:09.703Z,0
2016-12-28T02:21:10.033Z,0
2016-12-28T02:22:10.052Z,0
2016-12-28T02:23:09.785Z,0
2016-12-28T02:24:09.826Z,0
2016-12-28T02:25:09.535Z,0
2016-12-28T02:26:10.183Z,0
2016-12-28T02:27:10.193Z,0
2016-12-28T02:28:09.621Z,0
2016-12-28T02:29:09.954Z,0
2016-12-28T02:30:09.977Z,0
2016-12-28T02:31:10.286Z,0
2016-12-28T02:32:10.319Z,0
2016-12-28T02:33:10.355Z,0
2016-12-28T02:34:10.112Z,0
2016-12-28T02:35:10.108Z,0
2016-12-28T02:36:10.144Z,0
2016-12-28T02:37:09.853Z,0
2016-12-28T02:38:10.182Z,0
2016-12-28T02:39:10.203Z,0
2016-12-28T02:40:10.235Z,0
2016-12-28T02:41:10.263Z,0
2016-12-28T02:42:10.588Z,0
2016-12-28T02:43:10.005Z,0
2016-12-28T02:44:10.649Z,0
2016-12-28T02:45:10.978Z,0
2016-12-28T02:46:10.713Z,0
2016-12-28T02:47:10.731Z,0
2016-12-28T02:48:10.748Z,0
2016-12-28T02:49:10.777Z,0
2016-12-28T02:50:10.193Z,0
2016-12-28T02:51:10.230Z,0
2016-12-28T02:52:10.562Z,0
2016-12-28T02:53:10.586Z,0
2016-12-28T02:54:10.307Z,0
2016-12-28T02:55:10.680Z,0
2016-12-28T02:56:10.656Z,0
2016-12-28T02:57:10.680Z,0
2016-12-28T02:58:10.725Z,0
2016-12-28T02:59:10.433Z,0
2016-12-28T03:00:10.777Z,0
2016-12-28T03:01:10.491Z,0
2016-12-28T03:02:11.159Z,0
2016-12-28T03:03:11.156Z,0
2016-12-28T03:04:11.493Z,0
2016-12-28T03:05:10.889Z,0
2016-12-28T03:06:11.228Z,0
2016-12-28T03:07:10.958Z,0
2016-12-28T03:08:10.678Z,0
2016-12-28T03:09:11.019Z,0
2016-12-28T03:10:10.737Z,0
2016-12-28T03:11:11.372Z,0
2016-12-28T03:12:11.089Z,0
2016-12-28T03:13:11.425Z,0
2016-12-28T03:14:11.450Z,0
2016-12-28T03:15:11.462Z,0
2016-12-28T03:16:10.887Z,0
2016-12-28T03:17:11.211Z,0
2016-12-28T03:18:11.240Z,0
2016-12-28T03:19:11.277Z,0
2016-12-28T03:20:11.605Z,0
2016-12-28T03:21:11.025Z,0
2016-12-28T03:22:11.962Z,0
2016-12-28T03:23:11.063Z,0
2016-12-28T03:24:11.115Z,0
2016-12-28T03:25:11.128Z,0
2016-12-28T03:26:11.752Z,0
2016-12-28T03:27:11.477Z,0
2016-12-28T03:28:11.217Z,0
2016-12-28T03:29:11.842Z,0
2016-12-28T03:30:12.175Z,0
2016-12-28T03:31:11.583Z,0
2016-12-28T03:32:11.628Z,0
2016-12-28T03:33:11.937Z,0
2016-12-28T03:34:11.657Z,0
2016-12-28T03:35:11.402Z,0
2016-12-28T03:36:11.720Z,0
2016-12-28T03:37:11.752Z,0
2016-12-28T03:38:11.776Z,0
2016-12-28T03:39:12.109Z,0
2016-12-28T03:40:11.813Z,0
2016-12-28T03:41:11.850Z,0
2016-12-28T03:42:11.890Z,0
2016-12-28T03:43:12.203Z,0
2016-12-28T03:44:11.632Z,0
2016-12-28T03:45:11.672Z,0
2016-12-28T03:46:11.986Z,0
2016-12-28T03:47:12.326Z,0
2016-12-28T03:48:12.350Z,0
2016-12-28T03:49:12.355Z,0
2016-12-28T03:50:12.100Z,0
2016-12-28T03:51:12.117Z,0
2016-12-28T03:52:11.852Z,0
2016-12-28T03:53:12.480Z,0
2016-12-28T03:54:12.512Z,0
2016-12-28T03:55:12.232Z,0
2016-12-28T03:56:12.561Z,0
2016-12-28T03:57:12.273Z,0
2016-12-28T03:58:12.614Z,0
2016-12-28T03:59:12.025Z,0
2016-12-28T04:00:12.056Z,0
2016-12-28T04:01:12.385Z,0
2016-12-28T04:02:12.112Z,0
2016-12-28T04:03:12.746Z,0
2016-12-28T04:04:12.170Z,0
2016-12-28T04:05:13.100Z,0
2016-12-28T04:06:12.824Z,0
2016-12-28T04:07:12.540Z,0
2016-12-28T04:08:12.865Z,0
2016-12-28T04:09:12.293Z,0
2016-12-28T04:10:12.942Z,0
2016-12-28T04:11:12.683Z,0
2016-12-28T04:12:12.996Z,0
2016-12-28T04:13:13.000Z,0
2016-12-28T04:14:13.036Z,0
2016-12-28T04:15:12.757Z,0
2016-12-28T04:16:12.770Z,0
2016-12-28T04:17:12.811Z,0
2016-12-28T04:18:13.132Z,0
2016-12-28T04:19:12.860Z,0
2016-12-28T04:20:12.582Z,0
2016-12-28T04:21:13.526Z,0
2016-12-28T04:22:13.550Z,0
2016-12-28T04:23:13.280Z,0
2016-12-28T04:24:12.993Z,0
2016-12-28T04:25:13.308Z,0
2016-12-28T04:26:12.745Z,0
2016-12-28T04:27:13.078Z,0
2016-12-28T04:28:13.415Z,0
2016-12-28T04:29:12.854Z,0
2016-12-28T04:30:13.464Z,0
2016-12-28T04:31:13.175Z,0
2016-12-28T04:32:13.198Z,0
2016-12-28T04:33:12.934Z,0
2016-12-28T04:34:12.951Z,0
2016-12-28T04:35:13.596Z,0
2016-12-28T04:36:13.348Z,0
2016-12-28T04:37:13.949Z,0
2016-12-28T04:38:13.969Z,0
2016-12-28T04:39:14.018Z,0
2016-12-28T04:40:13.720Z,0
2016-12-28T04:41:13.755Z,0
2016-12-28T04:42:14.093Z,0
2016-12-28T04:43:13.497Z,0
2016-12-28T04:44:13.830Z,0
2016-12-28T04:45:13.863Z,0
2016-12-28T04:46:13.900Z,0
2016-12-28T04:47:13.917Z,0
2016-12-28T04:48:13.637Z,0
2016-12-28T04:49:13.649Z,0
2016-12-28T04:50:13.694Z,0
2016-12-28T04:51:13.411Z,0
2016-12-28T04:52:13.728Z,0
2016-12-28T04:53:13.769Z,0
2016-12-28T04:54:13.785Z,0
2016-12-28T04:55:13.814Z,0
2016-12-28T04:56:14.149Z,0
2016-12-28T04:57:14.477Z,0
2016-12-28T04:58:14.196Z,0
2016-12-28T04:59:14.221Z,0
2016-12-28T05:00:13.942Z,0
2016-12-28T05:01:13.978Z,0
2016-12-28T05:02:14.003Z,0
2016-12-28T05:03:14.343Z,0
2016-12-28T05:04:14.361Z,0
2016-12-28T05:05:14.385Z,0
2016-12-28T05:06:14.409Z,0
2016-12-28T05:07:14.434Z,0
2016-12-28T05:08:14.770Z,0
2016-12-28T05:09:14.172Z,0
2016-12-28T05:10:14.520Z,0
2016-12-28T05:11:14.237Z,0
2016-12-28T05:12:14.278Z,0
2016-12-28T05:13:14.598Z,0
2016-12-28T05:14:14.636Z,0
2016-12-28T05:15:14.041Z,0
2016-12-28T05:16:14.370Z,0
2016-12-28T05:17:14.102Z,0
2016-12-28T05:18:14.732Z,0
2016-12-28T05:19:14.461Z,0
2016-12-28T05:20:14.782Z,0
2016-12-28T05:21:14.511Z,0
2016-12-28T05:22:14.540Z,0
2016-12-28T05:23:14.889Z,0
2016-12-28T05:24:14.885Z,0
2016-12-28T05:25:14.910Z,0
2016-12-28T05:26:14.640Z,0
2016-12-28T05:27:14.968Z,0
2016-12-28T05:28:15.303Z,0
2016-12-28T05:29:14.749Z,0
2016-12-28T05:30:14.448Z,0
2016-12-28T05:31:14.772Z,0
2016-12-28T05:32:14.802Z,0
2016-12-28T05:33:14.818Z,0
2016-12-28T05:34:14.551Z,0
2016-12-28T05:35:14.876Z,0
2016-12-28T05:36:15.200Z,0
2016-12-28T05:37:14.938Z,0
2016-12-28T05:38:15.580Z,0
2016-12-28T05:39:14.984Z,0
2016-12-28T05:40:15.006Z,0
2016-12-28T05:41:15.649Z,0
2016-12-28T05:42:15.054Z,0
2016-12-28T05:43:15.095Z,0
2016-12-28T05:44:15.412Z,0
2016-12-28T05:45:15.449Z,0
2016-12-28T05:46:15.178Z,0
2016-12-28T05:47:15.515Z,0
2016-12-28T05:48:15.532Z,0
2016-12-28T05:49:15.854Z,0
2016-12-28T05:50:15.582Z,0
2016-12-28T05:51:15.303Z,0
2016-12-28T05:52:15.055Z,0
2016-12-28T05:53:15.977Z,0
2016-12-28T05:54:15.392Z,0
2016-12-28T05:55:15.451Z,0
2016-12-28T05:56:15.734Z,0
2016-12-28T05:57:15.777Z,0
2016-12-28T05:58:15.790Z,0
2016-12-28T05:59:15.531Z,0
2016-12-28T06:00:15.844Z,0
2016-12-28T06:01:15.268Z,0
2016-12-28T06:02:15.594Z,0
2016-12-28T06:03:15.927Z,0
2016-12-28T06:04:15.964Z,0
2016-12-28T06:05:15.381Z,0
2016-12-28T06:06:15.714Z,0
2016-12-28T06:07:16.035Z,0
2016-12-28T06:08:16.060Z,0
2016-12-28T06:09:15.481Z,0
2016-12-28T06:10:15.821Z,0
2016-12-28T06:11:15.843Z,0
2016-12-28T06:12:15.567Z,0
2016-12-28T06:13:15.901Z,0
2016-12-28T06:14:15.626Z,0
2016-12-28T06:15:15.950Z,0
2016-12-28T06:16:16.578Z,0
2016-12-28T06:17:16.313Z,0
2016-12-28T06:18:15.717Z,0
2016-12-28T06:19:16.059Z,0
2016-12-28T06:20:16.384Z,0
2016-12-28T06:21:16.420Z,0
2016-12-28T06:22:16.737Z,0
2016-12-28T06:23:16.786Z,0
2016-12-28T06:24:15.890Z,0
2016-12-28T06:25:16.217Z,0
2016-12-28T06:26:16.257Z,0
2016-12-28T06:27:16.264Z,0
2016-12-28T06:28:16.290Z,0
2016-12-28T06:29:16.667Z,0
2016-12-28T06:30:16.052Z,0
2016-12-28T06:31:16.385Z,0
2016-12-28T06:32:16.102Z,0
2016-12-28T06:33:16.743Z,0
2016-12-28T06:34:16.464Z,0
2016-12-28T06:35:16.804Z,0
2016-12-28T06:36:16.825Z,0
2016-12-28T06:37:17.140Z,0
2016-12-28T06:38:16.871Z,0
2016-12-28T06:39:16.900Z,0
2016-12-28T06:40:16.316Z,0
2016-12-28T06:41:16.644Z,0
2016-12-28T06:42:16.676Z,0
2016-12-28T06:43:17.315Z,0
2016-12-28T06:44:16.420Z,0
2016-12-28T06:45:17.069Z,0
2016-12-28T06:46:17.081Z,0
2016-12-28T06:47:16.801Z,0
2016-12-28T06:48:16.829Z,0
2016-12-28T06:49:16.858Z,0
2016-12-28T06:50:16.587Z,0
2016-12-28T06:51:16.608Z,0
2016-12-28T06:52:16.972Z,0
2016-12-28T06:53:16.970Z,0
2016-12-28T06:54:17.306Z,0
2016-12-28T06:55:17.321Z,0
2016-12-28T06:56:17.647Z,0
2016-12-28T06:57:17.072Z,0
2016-12-28T06:58:17.388Z,0
2016-12-28T06:59:16.817Z,0
2016-12-28T07:00:17.159Z,0
2016-12-28T07:01:17.476Z,4
2016-12-28T07:02:17.515Z,4
2016-12-28T07:03:17.229Z,4
2016-12-28T07:04:17.270Z,4
2016-12-28T07:05:17.285Z,4
2016-12-28T07:06:17.315Z,4
2016-12-28T07:07:17.638Z,8
2016-12-28T07:08:17.060Z,4
2016-12-28T07:09:17.688Z,8
2016-12-28T07:10:17.121Z,12
2016-12-28T07:11:17.138Z,8
2016-12-28T07:12:17.158Z,12
2016-12-28T07:13:17.808Z,12
2016-12-28T07:14:17.528Z,12
2016-12-28T07:15:17.557Z,16
2016-12-28T07:16:18.202Z,20
2016-12-28T07:17:17.610Z,24
2016-12-28T07:18:17.327Z,24
2016-12-28T07:19:17.359Z,28
2016-12-28T07:20:17.388Z,32
2016-12-28T07:21:18.009Z,32
2016-12-28T07:22:17.737Z,36
2016-12-28T07:23:17.473Z,40
2016-12-28T07:24:18.411Z,44
2016-12-28T07:25:17.828Z,48
2016-12-28T07:26:18.156Z,52
2016-12-28T07:27:18.481Z,60
2016-12-28T07:28:17.897Z,60
2016-12-28T07:29:18.234Z,68
2016-12-28T07:30:17.939Z,72
2016-12-28T07:31:17.684Z,80
2016-12-28T07:32:18.307Z,84
2016-12-28T07:33:18.373Z,92
2016-12-28T07:34:18.070Z,100
2016-12-28T07:35:18.095Z,100
2016-12-28T07:36:18.423Z,112
2016-12-28T07:37:18.168Z,116
2016-12-28T07:38:18.165Z,124
2016-12-28T07:39:18.197Z,132
2016-12-28T07:40:18.214Z,140
2016-12-28T07:41:18.551Z,148
2016-12-28T07:42:18.273Z,164
2016-12-28T07:43:18.304Z,172
2016-12-28T07:44:18.330Z,176
2016-12-28T07:45:18.662Z,184
2016-12-28T07:46:18.382Z,188
2016-12-28T07:47:18.716Z,196
2016-12-28T07:48:18.739Z,208
2016-12-28T07:49:18.145Z,220
2016-12-28T07:50:18.478Z,236
2016-12-28T07:51:18.518Z,244
2016-12-28T07:52:18.858Z,260
2016-12-28T07:53:18.883Z,264
2016-12-28T07:54:18.912Z,264
2016-12-28T07:55:18.932Z,276
2016-12-28T07:56:18.957Z,284
2016-12-28T07:57:18.673Z,292
2016-12-28T07:58:18.706Z,300
2016-12-28T07:59:19.026Z,304
2016-12-28T08:00:18.455Z,312
2016-12-28T08:01:19.079Z,320
2016-12-28T08:02:19.432Z,332
2016-12-28T08:03:18.840Z,352
2016-12-28T08:04:18.861Z,388
2016-12-28T08:05:19.195Z,388
2016-12-28T08:06:19.218Z,396
2016-12-28T08:07:18.943Z,412
2016-12-28T08:08:18.967Z,432
2016-12-28T08:09:19.005Z,436
2016-12-28T08:10:19.024Z,424
2016-12-28T08:11:18.741Z,436
2016-12-28T08:12:19.374Z,436
2016-12-28T08:13:19.406Z,452
2016-12-28T08:14:19.135Z,460
2016-12-28T08:15:19.156Z,472
2016-12-28T08:16:19.492Z,484
2016-12-28T08:17:19.498Z,496
2016-12-28T08:18:19.550Z,504
2016-12-28T08:19:19.274Z,512
2016-12-28T08:20:19.590Z,524
2016-12-28T08:21:19.631Z,536
2016-12-28T08:22:19.048Z,544
2016-12-28T08:23:19.975Z,560
2016-12-28T08:24:19.708Z,560
2016-12-28T08:25:19.421Z,568
2016-12-28T08:26:19.143Z,576
2016-12-28T08:27:19.168Z,588
2016-12-28T08:28:20.102Z,612
2016-12-28T08:29:19.226Z,628
2016-12-28T08:30:19.560Z,644
2016-12-28T08:31:19.285Z,660
2016-12-28T08:32:19.913Z,676
2016-12-28T08:33:19.941Z,696
2016-12-28T08:34:19.697Z,704
2016-12-28T08:35:20.302Z,688
2016-12-28T08:36:20.015Z,668
2016-12-28T08:37:20.035Z,644
2016-12-28T08:38:19.771Z,636
2016-12-28T08:39:19.795Z,644
2016-12-28T08:40:19.852Z,644
2016-12-28T08:41:20.157Z,648
2016-12-28T08:42:20.483Z,660
2016-12-28T08:43:20.210Z,684
2016-12-28T08:44:20.559Z,716
2016-12-28T08:45:20.612Z,724
2016-12-28T08:46:20.284Z,736
2016-12-28T08:47:19.992Z,744
2016-12-28T08:48:19.736Z,740
2016-12-28T08:49:20.361Z,744
2016-12-28T08:50:20.397Z,780
2016-12-28T08:51:20.117Z,780
2016-12-28T08:52:20.450Z,896
2016-12-28T08:53:20.771Z,1060
2016-12-28T08:54:20.509Z,1248
2016-12-28T08:55:20.208Z,1240
2016-12-28T08:56:20.580Z,1260
2016-12-28T08:57:20.274Z,1252
2016-12-28T08:58:20.633Z,1232
2016-12-28T08:59:20.938Z,1132
2016-12-28T09:00:20.658Z,1084
2016-12-28T09:01:20.695Z,1036
2016-12-28T09:02:21.047Z,1028
2016-12-28T09:03:21.044Z,1016
2016-12-28T09:04:20.468Z,1028
2016-12-28T09:05:20.494Z,1032
2016-12-28T09:06:20.819Z,1040
2016-12-28T09:07:20.537Z,1036
2016-12-28T09:08:20.570Z,1032
2016-12-28T09:09:20.615Z,1020
2016-12-28T09:10:20.320Z,1020
2016-12-28T09:11:20.644Z,1024
2016-12-28T09:12:21.289Z,1032
2016-12-28T09:13:20.704Z,1028
2016-12-28T09:14:20.736Z,1028
2016-12-28T09:15:20.749Z,1024
2016-12-28T09:16:21.082Z,1028
2016-12-28T09:17:21.106Z,1024
2016-12-28T09:18:20.830Z,1028
2016-12-28T09:19:21.171Z,1020
2016-12-28T09:20:20.590Z,1012
2016-12-28T09:21:20.909Z,1004
2016-12-28T09:22:21.241Z,996
2016-12-28T09:23:20.957Z,988
2016-12-28T09:24:21.289Z,980
2016-12-28T09:25:21.023Z,976
2016-12-28T09:26:21.367Z,968
2016-12-28T09:27:21.076Z,972
2016-12-28T09:28:21.415Z,972
2016-12-28T09:29:21.429Z,976
2016-12-28T09:30:21.462Z,972
2016-12-28T09:31:21.170Z,976
2016-12-28T09:32:21.507Z,984
2016-12-28T09:33:21.852Z,992
2016-12-28T09:34:21.268Z,992
2016-12-28T09:35:21.288Z,992
2016-12-28T09:36:21.317Z,1000
2016-12-28T09:37:21.649Z,1000
2016-12-28T09:38:21.678Z,996
2016-12-28T09:39:21.694Z,996
2016-12-28T09:40:21.727Z,1000
2016-12-28T09:41:22.056Z,1000
2016-12-28T09:42:21.468Z,996
2016-12-28T09:43:21.187Z,992
2016-12-28T09:44:21.525Z,992
2016-12-28T09:45:21.550Z,988
2016-12-28T09:46:22.183Z,996
2016-12-28T09:47:21.604Z,996
2016-12-28T09:48:21.947Z,992
2016-12-28T09:49:21.664Z,996
2016-12-28T09:50:21.993Z,996
2016-12-28T09:51:22.018Z,1004
2016-12-28T09:52:22.342Z,1016
2016-12-28T09:53:21.795Z,1016
2016-12-28T09:54:21.488Z,1016
2016-12-28T09:55:21.840Z,1016
2016-12-28T09:56:21.853Z,1020
2016-12-28T09:57:22.182Z,1008
2016-12-28T09:58:22.247Z,1008
2016-12-28T09:59:21.936Z,1004
2016-12-28T10:00:21.657Z,1004
2016-12-28T10:01:22.586Z,1036
2016-12-28T10:02:21.997Z,1052
2016-12-28T10:03:22.643Z,1064
2016-12-28T10:04:22.059Z,1076
2016-12-28T10:05:22.375Z,1092
2016-12-28T10:06:22.133Z,1100
2016-12-28T10:07:22.446Z,1108
2016-12-28T10:08:22.478Z,1112
2016-12-28T10:09:22.808Z,1124
2016-12-28T10:10:22.540Z,1136
2016-12-28T10:11:22.257Z,1144
2016-12-28T10:12:22.277Z,1156
2016-12-28T10:13:22.602Z,1168
2016-12-28T10:14:22.027Z,1196
2016-12-28T10:15:22.352Z,1156
2016-12-28T10:16:22.684Z,1224
2016-12-28T10:17:22.417Z,1276
2016-12-28T10:18:22.139Z,1260
2016-12-28T10:19:22.191Z,1420
2016-12-28T10:20:22.807Z,1560
2016-12-28T10:21:22.825Z,1660
2016-12-28T10:22:22.857Z,1764
2016-12-28T10:23:22.871Z,1844
2016-12-28T10:24:22.911Z,1876
2016-12-28T10:25:22.627Z,1880
2016-12-28T10:26:22.956Z,1904
2016-12-28T10:27:22.681Z,1940
2016-12-28T10:28:23.010Z,1968
2016-12-28T10:29:22.740Z,1972
2016-12-28T10:30:22.775Z,1980
2016-12-28T10:31:22.792Z,1992
2016-12-28T10:32:23.437Z,1980
2016-12-28T10:33:22.846Z,2012
2016-12-28T10:34:22.877Z,1936
2016-12-28T10:35:23.207Z,1636
2016-12-28T10:36:22.930Z,1400
2016-12-28T10:37:23.253Z,1368
2016-12-28T10:38:23.290Z,1364
2016-12-28T10:39:23.314Z,1408
2016-12-28T10:40:22.746Z,1408
2016-12-28T10:41:23.367Z,1408
2016-12-28T10:42:23.397Z,1396
2016-12-28T10:43:23.733Z,1392
2016-12-28T10:44:23.145Z,1380
2016-12-28T10:45:23.166Z,1360
2016-12-28T10:46:23.199Z,1340
2016-12-28T10:47:22.908Z,1308
2016-12-28T10:48:23.865Z,1292
2016-12-28T10:49:22.974Z,1292
2016-12-28T10:50:23.011Z,1304
2016-12-28T10:51:23.040Z,1308
2016-12-28T10:52:23.972Z,1296
2016-12-28T10:53:23.706Z,1300
2016-12-28T10:54:23.417Z,1292
2016-12-28T10:55:23.435Z,1300
2016-12-28T10:56:24.068Z,1296
2016-12-28T10:57:23.196Z,1284
2016-12-28T10:58:23.846Z,1288
2016-12-28T10:59:23.554Z,1288
2016-12-28T11:00:23.579Z,1284
2016-12-28T11:01:23.612Z,1264
2016-12-28T11:02:23.636Z,1256
2016-12-28T11:03:23.373Z,1256
2016-12-28T11:04:23.711Z,1248
2016-12-28T11:05:24.336Z,1248
2016-12-28T11:06:23.744Z,1244
2016-12-28T11:07:23.464Z,1252
2016-12-28T11:08:24.098Z,1256
2016-12-28T11:09:23.838Z,1256
2016-12-28T11:10:23.551Z,1264
2016-12-28T11:11:23.880Z,1264
2016-12-28T11:12:23.913Z,1260
2016-12-28T11:13:24.242Z,1268
2016-12-28T11:14:24.271Z,1292
2016-12-28T11:15:24.003Z,1284
2016-12-28T11:16:24.327Z,1312
2016-12-28T11:17:24.353Z,1288
2016-12-28T11:18:23.762Z,1284
2016-12-28T11:19:24.403Z,1304
2016-12-28T11:20:23.824Z,1312
2016-12-28T11:21:23.855Z,1288
2016-12-28T11:22:24.489Z,1300
2016-12-28T11:23:23.919Z,1300
2016-12-28T11:24:24.540Z,1316
2016-12-28T11:25:24.273Z,1308
2016-12-28T11:26:24.910Z,1316
2016-12-28T11:27:24.623Z,1320
2016-12-28T11:28:24.661Z,1316
2016-12-28T11:29:24.691Z,1320
2016-12-28T11:30:24.400Z,1316
2016-12-28T11:31:25.031Z,1332
2016-12-28T11:32:24.761Z,1328
2016-12-28T11:33:24.794Z,1328
2016-12-28T11:34:24.823Z,1364
2016-12-28T11:35:24.245Z,1360
2016-12-28T11:36:24.581Z,1336
2016-12-28T11:37:24.602Z,1312
2016-12-28T11:38:24.939Z,1336
2016-12-28T11:39:24.957Z,1332
2016-12-28T11:40:24.986Z,1340
2016-12-28T11:41:24.703Z,1304
2016-12-28T11:42:25.038Z,1316
2016-12-28T11:43:25.069Z,1344
2016-12-28T11:44:24.798Z,1324
2016-12-28T11:45:24.830Z,1340
2016-12-28T11:46:24.864Z,1328
2016-12-28T11:47:25.190Z,1320
2016-12-28T11:48:25.223Z,1336
2016-12-28T11:49:25.268Z,1372
2016-12-28T11:50:24.966Z,1360
2016-12-28T11:51:25.290Z,1412
2016-12-28T11:52:25.060Z,1440
2016-12-28T11:53:25.516Z,1376
2016-12-28T11:54:25.153Z,1376
2016-12-28T11:55:25.567Z,1416
2016-12-28T11:56:24.827Z,1420
2016-12-28T11:57:25.619Z,1424
2016-12-28T11:58:25.269Z,1416
2016-12-28T11:59:25.681Z,1404
2016-12-28T12:00:25.711Z,1400
2016-12-28T12:01:25.729Z,1404
2016-12-28T12:02:25.748Z,1372
2016-12-28T12:03:25.401Z,1364
2016-12-28T12:04:25.046Z,1356
2016-12-28T12:05:25.463Z,1372
2016-12-28T12:06:25.093Z,1404
2016-12-28T12:07:25.905Z,1372
2016-12-28T12:08:26.315Z,1360
2016-12-28T12:09:25.192Z,1372
2016-12-28T12:10:25.612Z,1396
2016-12-28T12:11:25.234Z,1428
2016-12-28T12:12:25.650Z,1440
2016-12-28T12:13:25.683Z,1412
2016-12-28T12:14:25.719Z,1400
2016-12-28T12:15:26.116Z,1408
2016-12-28T12:16:25.766Z,1428
2016-12-28T12:17:25.812Z,1444
2016-12-28T12:18:25.425Z,1460
2016-12-28T12:19:25.841Z,1464
2016-12-28T12:20:25.889Z,1472
2016-12-28T12:21:26.315Z,1492
2016-12-28T12:22:26.700Z,1496
2016-12-28T12:23:25.952Z,1492
2016-12-28T12:24:26.745Z,1472
2016-12-28T12:25:26.010Z,1452
2016-12-28T12:26:26.815Z,1460
2016-12-28T12:27:26.064Z,1428
2016-12-28T12:28:26.092Z,1436
2016-12-28T12:29:26.130Z,1424
2016-12-28T12:30:26.154Z,1416
2016-12-28T12:31:26.952Z,1420
2016-12-28T12:32:26.597Z,1408
2016-12-28T12:33:25.846Z,1420
2016-12-28T12:34:26.642Z,1412
2016-12-28T12:35:27.071Z,1444
2016-12-28T12:36:26.320Z,1416
2016-12-28T12:37:26.358Z,1400
2016-12-28T12:38:25.996Z,1408
2016-12-28T12:39:26.392Z,1404
2016-12-28T12:40:27.204Z,1400
2016-12-28T12:41:26.461Z,1416
2016-12-28T12:42:26.878Z,1428
2016-12-28T12:43:27.285Z,1404
2016-12-28T12:44:26.152Z,1372
2016-12-28T12:45:26.553Z,1348
2016-12-28T12:46:26.202Z,1348
2016-12-28T12:47:26.999Z,1372
2016-12-28T12:48:27.421Z,1384
2016-12-28T12:49:27.052Z,1412
2016-12-28T12:50:26.321Z,1412
2016-12-28T12:51:27.114Z,1396
2016-12-28T12:52:27.188Z,1392
2016-12-28T12:53:26.788Z,1376
2016-12-28T12:54:27.205Z,1384
2016-12-28T12:55:26.478Z,1384
2016-12-28T12:56:27.644Z,1392
2016-12-28T12:57:26.504Z,1380
2016-12-28T12:58:27.317Z,1388
2016-12-28T12:59:26.558Z,1392
2016-12-28T13:00:26.587Z,1416
2016-12-28T13:01:26.627Z,1424
2016-12-28T13:02:27.823Z,1440
2016-12-28T13:03:27.468Z,1416
2016-12-28T13:04:27.487Z,1416
2016-12-28T13:05:27.123Z,1416
2016-12-28T13:06:27.144Z,1400
2016-12-28T13:07:27.557Z,1416
2016-12-28T13:08:27.979Z,1400
2016-12-28T13:09:27.230Z,1364
2016-12-28T13:10:27.267Z,1364
2016-12-28T13:11:27.684Z,1396
2016-12-28T13:12:27.321Z,1372
2016-12-28T13:13:27.726Z,1356
2016-12-28T13:14:27.374Z,1356
2016-12-28T13:15:27.019Z,1348
2016-12-28T13:16:27.425Z,1356
2016-12-28T13:17:27.824Z,1360
2016-12-28T13:18:27.477Z,1356
2016-12-28T13:19:27.898Z,1328
2016-12-28T13:20:27.146Z,1328
2016-12-28T13:21:27.943Z,1352
2016-12-28T13:22:27.984Z,1372
2016-12-28T13:23:27.617Z,1388
2016-12-28T13:24:28.043Z,1400
2016-12-28T13:25:27.675Z,1416
2016-12-28T13:26:27.703Z,1420
2016-12-28T13:27:27.724Z,1392
2016-12-28T13:28:27.760Z,1360
2016-12-28T13:29:27.777Z,1408
2016-12-28T13:30:27.806Z,1404
2016-12-28T13:31:28.224Z,1372
2016-12-28T13:32:27.868Z,1352
2016-12-28T13:33:28.293Z,1364
2016-12-28T13:34:27.925Z,1376
2016-12-28T13:35:27.950Z,1380
2016-12-28T13:36:28.367Z,1376
2016-12-28T13:37:28.387Z,1376
2016-12-28T13:38:27.636Z,1408
2016-12-28T13:39:28.449Z,1420
2016-12-28T13:40:28.081Z,1408
2016-12-28T13:41:28.119Z,1400
2016-12-28T13:42:28.135Z,1404
2016-12-28T13:43:28.555Z,1400
2016-12-28T13:44:28.584Z,1408
2016-12-28T13:45:27.833Z,1444
2016-12-28T13:46:27.886Z,1436
2016-12-28T13:47:28.275Z,1400
2016-12-28T13:48:28.694Z,1408
2016-12-28T13:49:28.332Z,1460
2016-12-28T13:50:28.361Z,1468
2016-12-28T13:51:28.397Z,1480
2016-12-28T13:52:28.426Z,1600
2016-12-28T13:53:28.830Z,1516
2016-12-28T13:54:28.475Z,1404
2016-12-28T13:55:28.520Z,1600
2016-12-28T13:56:28.922Z,1588
2016-12-28T13:57:28.949Z,1564
2016-12-28T13:58:29.362Z,1552
2016-12-28T13:59:28.999Z,1432
2016-12-28T14:00:29.015Z,1424
2016-12-28T14:01:29.440Z,1368
2016-12-28T14:02:28.701Z,1332
2016-12-28T14:03:28.317Z,1508
2016-12-28T14:04:28.750Z,1412
2016-12-28T14:05:28.779Z,1340
2016-12-28T14:06:28.416Z,1300